sensor_id;sensor_type;location;lat;lon;timestamp;P1;durP1;ratioP1;P2;durP2;ratioP2
25649;SDS011;13505;45.196;5.696;2023-04-03T04:04:30;2.70;;;2.30;;
25649;SDS011;13505;45.196;5.696;2023-04-03T04:09:22;4.22;;;3.10;;
25649;SDS011;13505;45.196;5.696;2023-04-03T04:14:12;4.10;;;2.90;;
25649;SDS011;13505;45.196;5.696;2023-04-03T04:19:03;4.45;;;3.00;;
25649;SDS011;13505;45.196;5.696;2023-04-03T04:23:53;3.90;;;3.33;;
25649;SDS011;13505;45.196;5.696;2023-04-03T04:28:44;4.40;;;3.35;;
25649;SDS011;13505;45.196;5.696;2023-04-03T04:33:34;4.70;;;3.85;;
25649;SDS011;13505;45.196;5.696;2023-04-03T04:38:25;4.90;;;3.65;;
25649;SDS011;13505;45.196;5.696;2023-04-03T04:43:16;3.85;;;3.10;;
25649;SDS011;13505;45.196;5.696;2023-04-03T04:48:06;4.68;;;3.78;;
25649;SDS011;13505;45.196;5.696;2023-04-03T04:52:57;5.50;;;3.95;;
25649;SDS011;13505;45.196;5.696;2023-04-03T04:57:47;5.00;;;4.15;;
25649;SDS011;13505;45.196;5.696;2023-04-03T05:02:38;5.93;;;4.28;;
25649;SDS011;13505;45.196;5.696;2023-04-03T05:07:28;6.00;;;4.32;;
25649;SDS011;13505;45.196;5.696;2023-04-03T05:12:18;7.47;;;4.47;;
25649;SDS011;13505;45.196;5.696;2023-04-03T05:17:09;6.03;;;4.07;;
25649;SDS011;13505;45.196;5.696;2023-04-03T05:21:59;4.90;;;4.00;;
25649;SDS011;13505;45.196;5.696;2023-04-03T05:26:50;4.50;;;3.75;;
25649;SDS011;13505;45.196;5.696;2023-04-03T05:31:40;5.43;;;3.83;;
25649;SDS011;13505;45.196;5.696;2023-04-03T05:36:30;5.38;;;4.53;;
25649;SDS011;13505;45.196;5.696;2023-04-03T05:41:20;5.70;;;4.47;;
25649;SDS011;13505;45.196;5.696;2023-04-03T05:46:11;7.50;;;4.63;;
25649;SDS011;13505;45.196;5.696;2023-04-03T05:51:04;5.38;;;3.85;;
25649;SDS011;13505;45.196;5.696;2023-04-03T05:55:56;5.50;;;4.38;;
25649;SDS011;13505;45.196;5.696;2023-04-03T06:00:46;4.97;;;4.20;;
25649;SDS011;13505;45.196;5.696;2023-04-03T06:05:36;7.20;;;4.43;;
25649;SDS011;13505;45.196;5.696;2023-04-03T06:10:27;6.95;;;4.35;;
25649;SDS011;13505;45.196;5.696;2023-04-03T06:15:17;4.70;;;4.20;;
25649;SDS011;13505;45.196;5.696;2023-04-03T06:20:08;6.75;;;4.95;;
25649;SDS011;13505;45.196;5.696;2023-04-03T06:24:59;7.28;;;5.28;;
25649;SDS011;13505;45.196;5.696;2023-04-03T06:29:49;6.30;;;5.00;;
25649;SDS011;13505;45.196;5.696;2023-04-03T06:34:39;4.78;;;3.40;;
25649;SDS011;13505;45.196;5.696;2023-04-03T06:39:31;3.38;;;2.70;;
25649;SDS011;13505;45.196;5.696;2023-04-03T06:44:22;2.50;;;2.30;;
25649;SDS011;13505;45.196;5.696;2023-04-03T06:49:13;3.08;;;2.70;;
25649;SDS011;13505;45.196;5.696;2023-04-03T06:54:04;3.17;;;2.60;;
25649;SDS011;13505;45.196;5.696;2023-04-03T06:58:56;2.38;;;2.05;;
25649;SDS011;13505;45.196;5.696;2023-04-03T07:03:47;2.90;;;2.03;;
25649;SDS011;13505;45.196;5.696;2023-04-03T07:08:38;2.47;;;2.08;;
25649;SDS011;13505;45.196;5.696;2023-04-03T07:13:29;1.98;;;1.80;;
25649;SDS011;13505;45.196;5.696;2023-04-03T07:18:20;3.05;;;2.63;;
25649;SDS011;13505;45.196;5.696;2023-04-03T07:23:11;1.92;;;1.83;;
25649;SDS011;13505;45.196;5.696;2023-04-03T07:28:01;2.10;;;1.90;;
25649;SDS011;13505;45.196;5.696;2023-04-03T07:32:52;2.13;;;1.92;;
25649;SDS011;13505;45.196;5.696;2023-04-03T07:37:42;2.75;;;1.90;;
25649;SDS011;13505;45.196;5.696;2023-04-03T07:42:33;1.95;;;1.73;;
25649;SDS011;13505;45.196;5.696;2023-04-03T07:47:23;4.43;;;2.70;;
25649;SDS011;13505;45.196;5.696;2023-04-03T07:52:14;3.17;;;2.88;;
25649;SDS011;13505;45.196;5.696;2023-04-03T07:57:05;6.57;;;3.20;;
25649;SDS011;13505;45.196;5.696;2023-04-03T08:01:56;3.70;;;3.08;;
25649;SDS011;13505;45.196;5.696;2023-04-03T08:06:46;4.55;;;3.10;;
25649;SDS011;13505;45.196;5.696;2023-04-03T08:11:38;4.30;;;3.30;;
25649;SDS011;13505;45.196;5.696;2023-04-03T08:16:29;4.53;;;3.50;;
25649;SDS011;13505;45.196;5.696;2023-04-03T08:21:20;5.88;;;3.60;;
25649;SDS011;13505;45.196;5.696;2023-04-03T08:26:11;4.80;;;3.95;;
25649;SDS011;13505;45.196;5.696;2023-04-03T08:31:04;4.97;;;4.00;;
25649;SDS011;13505;45.196;5.696;2023-04-03T08:35:56;5.10;;;4.13;;
25649;SDS011;13505;45.196;5.696;2023-04-03T08:40:46;4.55;;;4.00;;
25649;SDS011;13505;45.196;5.696;2023-04-03T08:45:41;8.10;;;4.90;;
25649;SDS011;13505;45.196;5.696;2023-04-03T08:50:37;6.13;;;4.97;;
25649;SDS011;13505;45.196;5.696;2023-04-03T08:55:31;10.63;;;5.65;;
25649;SDS011;13505;45.196;5.696;2023-04-03T09:00:25;6.65;;;5.13;;
25649;SDS011;13505;45.196;5.696;2023-04-03T09:05:20;7.97;;;5.07;;
25649;SDS011;13505;45.196;5.696;2023-04-03T09:10:24;7.40;;;4.68;;
25649;SDS011;13505;45.196;5.696;2023-04-03T09:15:22;5.80;;;4.55;;
25649;SDS011;13505;45.196;5.696;2023-04-03T09:20:21;6.28;;;4.53;;
25649;SDS011;13505;45.196;5.696;2023-04-03T09:30:21;4.40;;;3.97;;
25649;SDS011;13505;45.196;5.696;2023-04-03T09:45:31;4.93;;;4.10;;
25649;SDS011;13505;45.196;5.696;2023-04-03T09:50:23;4.93;;;3.83;;
25649;SDS011;13505;45.196;5.696;2023-04-03T09:55:15;4.97;;;3.90;;
25649;SDS011;13505;45.196;5.696;2023-04-03T10:00:23;5.30;;;3.88;;
25649;SDS011;13505;45.196;5.696;2023-04-03T10:05:26;9.13;;;3.72;;
25649;SDS011;13505;45.196;5.696;2023-04-03T10:10:27;8.27;;;3.17;;
25649;SDS011;13505;45.196;5.696;2023-04-03T10:15:17;3.87;;;3.00;;
25649;SDS011;13505;45.196;5.696;2023-04-03T10:25:18;3.45;;;2.10;;
25649;SDS011;13505;45.196;5.696;2023-04-03T10:35:49;2.42;;;2.17;;
25649;SDS011;13505;45.196;5.696;2023-04-03T10:40:45;2.85;;;2.00;;
25649;SDS011;13505;45.196;5.696;2023-04-03T10:45:44;4.78;;;1.98;;
25649;SDS011;13505;45.196;5.696;2023-04-03T10:56:05;2.17;;;1.95;;
25649;SDS011;13505;45.196;5.696;2023-04-03T11:06:14;4.07;;;2.05;;
25649;SDS011;13505;45.196;5.696;2023-04-03T11:11:08;2.47;;;1.80;;
25649;SDS011;13505;45.196;5.696;2023-04-03T11:16:01;2.13;;;1.85;;
25649;SDS011;13505;45.196;5.696;2023-04-03T11:21:09;2.78;;;1.90;;
25649;SDS011;13505;45.196;5.696;2023-04-03T11:26:12;1.50;;;1.40;;
25649;SDS011;13505;45.196;5.696;2023-04-03T11:36:24;1.90;;;1.50;;
25649;SDS011;13505;45.196;5.696;2023-04-03T11:41:17;1.65;;;1.50;;
25649;SDS011;13505;45.196;5.696;2023-04-03T11:46:16;3.95;;;1.63;;
25649;SDS011;13505;45.196;5.696;2023-04-03T11:56:03;1.63;;;1.30;;
25649;SDS011;13505;45.196;5.696;2023-04-03T12:01:18;2.80;;;1.60;;
25649;SDS011;13505;45.196;5.696;2023-04-03T12:11:28;2.13;;;1.50;;
25649;SDS011;13505;45.196;5.696;2023-04-03T12:16:24;1.50;;;1.35;;
25649;SDS011;13505;45.196;5.696;2023-04-03T12:22:04;2.05;;;1.63;;
25649;SDS011;13505;45.196;5.696;2023-04-03T12:31:55;2.75;;;1.83;;
25649;SDS011;13505;45.196;5.696;2023-04-03T12:36:50;3.38;;;1.70;;
25649;SDS011;13505;45.196;5.696;2023-04-03T12:47:21;1.50;;;1.40;;
25649;SDS011;13505;45.196;5.696;2023-04-03T12:52:20;2.33;;;1.95;;
25649;SDS011;13505;45.196;5.696;2023-04-03T12:57:26;2.92;;;1.80;;
25649;SDS011;13505;45.196;5.696;2023-04-03T13:02:27;2.75;;;2.25;;
25649;SDS011;13505;45.196;5.696;2023-04-03T13:07:31;3.20;;;2.50;;
25649;SDS011;13505;45.196;5.696;2023-04-03T13:12:27;4.63;;;2.78;;
25649;SDS011;13505;45.196;5.696;2023-04-03T13:17:17;4.53;;;3.38;;
25649;SDS011;13505;45.196;5.696;2023-04-03T13:22:12;4.45;;;3.20;;
25649;SDS011;13505;45.196;5.696;2023-04-03T13:27:09;3.78;;;2.97;;
25649;SDS011;13505;45.196;5.696;2023-04-03T13:32:01;5.32;;;3.17;;
25649;SDS011;13505;45.196;5.696;2023-04-03T13:41:51;4.32;;;2.67;;
25649;SDS011;13505;45.196;5.696;2023-04-03T13:46:44;4.80;;;3.03;;
25649;SDS011;13505;45.196;5.696;2023-04-03T13:51:37;3.58;;;2.75;;
25649;SDS011;13505;45.196;5.696;2023-04-03T13:56:35;10.43;;;3.65;;
25649;SDS011;13505;45.196;5.696;2023-04-03T14:01:33;7.43;;;3.90;;
25649;SDS011;13505;45.196;5.696;2023-04-03T14:06:27;3.88;;;3.00;;
25649;SDS011;13505;45.196;5.696;2023-04-03T14:11:20;5.70;;;2.90;;
25649;SDS011;13505;45.196;5.696;2023-04-03T14:16:13;4.30;;;3.13;;
25649;SDS011;13505;45.196;5.696;2023-04-03T14:21:06;3.75;;;3.15;;
25649;SDS011;13505;45.196;5.696;2023-04-03T14:25:57;4.05;;;3.05;;
25649;SDS011;13505;45.196;5.696;2023-04-03T14:30:48;4.15;;;3.53;;
25649;SDS011;13505;45.196;5.696;2023-04-03T14:35:40;4.03;;;3.08;;
25649;SDS011;13505;45.196;5.696;2023-04-03T14:40:31;5.43;;;3.58;;
25649;SDS011;13505;45.196;5.696;2023-04-03T14:45:21;3.43;;;2.97;;
25649;SDS011;13505;45.196;5.696;2023-04-03T14:50:17;4.97;;;3.08;;
25649;SDS011;13505;45.196;5.696;2023-04-03T14:55:14;5.75;;;3.50;;
25649;SDS011;13505;45.196;5.696;2023-04-03T15:00:16;4.75;;;3.33;;
25649;SDS011;13505;45.196;5.696;2023-04-03T15:05:09;5.47;;;3.33;;
25649;SDS011;13505;45.196;5.696;2023-04-03T15:10:02;5.47;;;3.70;;
25649;SDS011;13505;45.196;5.696;2023-04-03T15:15:14;6.43;;;3.78;;
25649;SDS011;13505;45.196;5.696;2023-04-03T15:20:11;3.92;;;3.03;;
25649;SDS011;13505;45.196;5.696;2023-04-03T15:25:04;4.53;;;3.55;;
25649;SDS011;13505;45.196;5.696;2023-04-03T15:29:54;8.13;;;3.90;;
25649;SDS011;13505;45.196;5.696;2023-04-03T15:34:45;6.07;;;3.20;;
25649;SDS011;13505;45.196;5.696;2023-04-03T15:39:35;3.63;;;2.90;;
25649;SDS011;13505;45.196;5.696;2023-04-03T15:44:25;4.33;;;3.20;;
25649;SDS011;13505;45.196;5.696;2023-04-03T15:49:16;4.40;;;3.42;;
25649;SDS011;13505;45.196;5.696;2023-04-03T15:54:11;4.63;;;3.25;;
25649;SDS011;13505;45.196;5.696;2023-04-03T15:59:02;5.45;;;3.50;;
25649;SDS011;13505;45.196;5.696;2023-04-03T16:03:53;6.68;;;3.17;;
25649;SDS011;13505;45.196;5.696;2023-04-03T16:08:44;5.53;;;3.80;;
25649;SDS011;13505;45.196;5.696;2023-04-03T16:13:36;4.72;;;3.80;;
25649;SDS011;13505;45.196;5.696;2023-04-03T16:18:27;5.80;;;3.58;;
25649;SDS011;13505;45.196;5.696;2023-04-03T16:23:18;6.20;;;3.10;;
25649;SDS011;13505;45.196;5.696;2023-04-03T16:28:09;5.43;;;3.35;;
25649;SDS011;13505;45.196;5.696;2023-04-03T16:33:00;4.65;;;3.17;;
25649;SDS011;13505;45.196;5.696;2023-04-03T16:37:50;6.18;;;2.85;;
25649;SDS011;13505;45.196;5.696;2023-04-03T16:42:40;4.20;;;3.00;;
25649;SDS011;13505;45.196;5.696;2023-04-03T16:47:31;4.65;;;2.85;;
25649;SDS011;13505;45.196;5.696;2023-04-03T16:52:21;4.43;;;2.83;;
25649;SDS011;13505;45.196;5.696;2023-04-03T16:57:12;6.20;;;3.22;;
25649;SDS011;13505;45.196;5.696;2023-04-03T17:02:02;11.57;;;3.60;;
25649;SDS011;13505;45.196;5.696;2023-04-03T17:06:52;9.00;;;3.70;;
25649;SDS011;13505;45.196;5.696;2023-04-03T17:11:43;4.00;;;3.00;;
25649;SDS011;13505;45.196;5.696;2023-04-03T17:16:34;4.03;;;3.03;;
25649;SDS011;13505;45.196;5.696;2023-04-03T17:21:25;10.77;;;4.30;;
25649;SDS011;13505;45.196;5.696;2023-04-03T17:26:16;10.00;;;3.55;;
25649;SDS011;13505;45.196;5.696;2023-04-03T17:31:07;7.73;;;3.20;;
25649;SDS011;13505;45.196;5.696;2023-04-03T17:35:58;7.38;;;3.10;;
25649;SDS011;13505;45.196;5.696;2023-04-03T17:40:51;5.40;;;3.30;;
25649;SDS011;13505;45.196;5.696;2023-04-03T17:45:41;3.45;;;2.78;;
25649;SDS011;13505;45.196;5.696;2023-04-03T17:50:32;3.75;;;2.80;;
25649;SDS011;13505;45.196;5.696;2023-04-03T17:55:22;3.17;;;2.73;;
25649;SDS011;13505;45.196;5.696;2023-04-03T18:00:13;4.63;;;2.88;;
25649;SDS011;13505;45.196;5.696;2023-04-03T18:05:05;4.57;;;2.85;;
25649;SDS011;13505;45.196;5.696;2023-04-03T18:09:55;3.22;;;2.58;;
25649;SDS011;13505;45.196;5.696;2023-04-03T18:14:47;3.72;;;2.50;;
25649;SDS011;13505;45.196;5.696;2023-04-03T18:19:38;5.80;;;2.90;;
25649;SDS011;13505;45.196;5.696;2023-04-03T18:24:28;4.83;;;2.50;;
25649;SDS011;13505;45.196;5.696;2023-04-03T18:29:22;3.17;;;2.25;;
25649;SDS011;13505;45.196;5.696;2023-04-03T18:34:14;4.25;;;2.50;;
25649;SDS011;13505;45.196;5.696;2023-04-03T18:39:04;4.30;;;2.53;;
25649;SDS011;13505;45.196;5.696;2023-04-03T18:43:55;6.63;;;2.40;;
25649;SDS011;13505;45.196;5.696;2023-04-03T18:48:47;2.35;;;2.08;;
25649;SDS011;13505;45.196;5.696;2023-04-03T18:53:38;5.32;;;2.35;;
25649;SDS011;13505;45.196;5.696;2023-04-03T18:58:28;3.65;;;2.28;;
25649;SDS011;13505;45.196;5.696;2023-04-03T19:03:18;5.33;;;2.50;;
25649;SDS011;13505;45.196;5.696;2023-04-03T19:08:09;2.38;;;1.90;;
25649;SDS011;13505;45.196;5.696;2023-04-03T19:13:00;4.88;;;2.13;;
25649;SDS011;13505;45.196;5.696;2023-04-03T19:17:50;2.42;;;2.05;;
25649;SDS011;13505;45.196;5.696;2023-04-03T19:22:41;3.20;;;1.85;;
25649;SDS011;13505;45.196;5.696;2023-04-03T19:27:32;2.17;;;1.98;;
25649;SDS011;13505;45.196;5.696;2023-04-03T19:32:23;2.47;;;1.92;;
25649;SDS011;13505;45.196;5.696;2023-04-03T19:37:13;2.75;;;1.90;;
25649;SDS011;13505;45.196;5.696;2023-04-03T19:42:04;2.75;;;2.10;;
25649;SDS011;13505;45.196;5.696;2023-04-03T19:46:55;2.72;;;1.73;;
25649;SDS011;13505;45.196;5.696;2023-04-03T19:51:45;2.65;;;2.13;;
25649;SDS011;13505;45.196;5.696;2023-04-03T19:56:35;4.97;;;2.65;;
25649;SDS011;13505;45.196;5.696;2023-04-03T20:01:26;3.97;;;2.33;;
25649;SDS011;13505;45.196;5.696;2023-04-03T20:06:18;2.50;;;2.10;;
25649;SDS011;13505;45.196;5.696;2023-04-03T20:11:10;3.72;;;2.30;;
25649;SDS011;13505;45.196;5.696;2023-04-03T20:16:01;3.75;;;2.40;;
25649;SDS011;13505;45.196;5.696;2023-04-03T20:20:57;4.07;;;2.60;;
25649;SDS011;13505;45.196;5.696;2023-04-03T20:25:50;5.50;;;2.45;;
25649;SDS011;13505;45.196;5.696;2023-04-03T20:30:41;6.85;;;2.65;;
25649;SDS011;13505;45.196;5.696;2023-04-03T20:35:35;4.85;;;2.67;;
25649;SDS011;13505;45.196;5.696;2023-04-03T20:40:25;6.18;;;2.53;;
25649;SDS011;13505;45.196;5.696;2023-04-03T20:45:17;4.05;;;2.55;;
25649;SDS011;13505;45.196;5.696;2023-04-03T20:50:07;4.85;;;2.92;;
25649;SDS011;13505;45.196;5.696;2023-04-03T20:54:58;5.10;;;2.80;;
25649;SDS011;13505;45.196;5.696;2023-04-03T20:59:50;4.65;;;2.53;;
25649;SDS011;13505;45.196;5.696;2023-04-03T21:04:47;5.25;;;2.83;;
25649;SDS011;13505;45.196;5.696;2023-04-03T21:20:36;5.38;;;2.90;;
25649;SDS011;13505;45.196;5.696;2023-04-03T21:25:26;3.67;;;2.72;;
25649;SDS011;13505;45.196;5.696;2023-04-03T21:30:17;4.07;;;2.78;;
25649;SDS011;13505;45.196;5.696;2023-04-03T21:35:07;4.20;;;2.60;;
25649;SDS011;13505;45.196;5.696;2023-04-03T21:39:58;4.18;;;2.63;;
25649;SDS011;13505;45.196;5.696;2023-04-03T21:44:48;3.13;;;2.50;;
25649;SDS011;13505;45.196;5.696;2023-04-03T21:49:38;4.53;;;2.70;;
25649;SDS011;13505;45.196;5.696;2023-04-03T21:54:29;4.70;;;2.90;;
25649;SDS011;13505;45.196;5.696;2023-04-03T21:59:19;4.07;;;2.70;;
